Time;durP1;ratioP1;P1;durP2;ratioP2;P2;SDS_P1;SDS_P2;PMS_P1;PMS_P2;Temp;Humidity;BMP_temperature;BMP_pressure;BME280_temperature;BME280_humidity;BME280_pressure;Samples;Min_cycle;Max_cycle;Signal;HPM_P1;HPM_P2
2022/04/05 00:00:50;;;;;;;23.35;9.98;;;;;;;7.95;95.42;99078.44;4991818;28;20081;-59
2022/04/05 00:03:17;;;;;;;13.30;8.27;;;;;;;7.97;94.56;99070.59;4984176;28;20057;-59
2022/04/05 00:05:44;;;;;;;14.60;9.55;;;;;;;8.00;94.33;99069.94;4975032;28;20055;-59
2022/04/05 00:08:12;;;;;;;13.23;8.73;;;;;;;8.04;94.68;99065.38;4995713;28;20065;-59
2022/04/05 00:10:39;;;;;;;17.52;9.88;;;;;;;8.07;95.49;99072.19;4995532;28;20090;-60
2022/04/05 00:13:07;;;;;;;11.48;8.02;;;;;;;8.18;94.54;99075.41;4992573;28;20388;-60
2022/04/05 00:15:34;;;;;;;13.73;9.02;;;;;;;8.13;93.84;99073.66;4995583;28;20065;-60
2022/04/05 00:18:04;;;;;;;10.52;6.95;;;;;;;8.12;93.70;99064.50;4995532;28;20061;-59
2022/04/05 00:20:31;;;;;;;10.50;7.00;;;;;;;8.18;93.79;99072.63;4994927;28;20066;-58
2022/04/05 00:22:59;;;;;;;17.85;9.20;;;;;;;8.29;93.90;99066.41;4986739;28;20058;-59
2022/04/05 00:25:27;;;;;;;12.45;7.93;;;;;;;8.32;93.56;99062.13;4975830;28;20054;-60
2022/04/05 00:27:54;;;;;;;13.52;8.07;;;;;;;8.37;93.31;99072.22;4989590;28;20051;-59
2022/04/05 00:30:22;;;;;;;13.98;8.07;;;;;;;8.45;93.02;99079.72;4979825;28;20054;-59
2022/04/05 00:32:49;;;;;;;13.13;8.30;;;;;;;8.41;92.72;99068.47;4995307;28;20054;-59
2022/04/05 00:35:18;;;;;;;19.05;8.93;;;;;;;8.53;92.18;99065.00;4994899;28;20168;-59
2022/04/05 00:37:45;;;;;;;21.25;9.48;;;;;;;8.36;93.55;99059.50;4984311;28;20138;-58
2022/04/05 00:40:13;;;;;;;13.38;8.15;;;;;;;8.32;93.71;99073.22;4975608;28;20058;-59
2022/04/05 00:42:41;;;;;;;10.95;7.68;;;;;;;8.43;93.83;99070.91;4987013;28;20065;-59
2022/04/05 00:45:10;;;;;;;18.08;9.05;;;;;;;8.49;93.89;99069.59;4995006;28;20499;-58
2022/04/05 00:47:40;;;;;;;10.60;7.68;;;;;;;8.53;93.89;99071.34;4994410;28;20054;-59
2022/04/05 00:50:08;;;;;;;14.45;8.93;;;;;;;8.62;93.54;99062.16;4992434;28;20054;-60
2022/04/05 00:52:37;;;;;;;15.50;7.70;;;;;;;8.57;93.50;99067.88;4975311;28;20407;-60
2022/04/05 00:55:06;;;;;;;13.00;7.97;;;;;;;8.66;92.38;99063.13;4975958;28;20046;-60
2022/04/05 00:57:35;;;;;;;16.70;8.63;;;;;;;8.63;92.53;99058.22;4988538;28;20057;-60
2022/04/05 01:00:07;;;;;;;15.32;8.38;;;;;;;8.71;93.39;99054.59;4994537;28;20081;-60
2022/04/05 01:02:38;;;;;;;18.55;8.93;;;;;;;8.73;92.99;99058.66;4994091;28;20388;-60
2022/04/05 01:05:06;;;;;;;15.25;8.52;;;;;;;8.76;93.44;99059.13;4985294;28;20055;-60
2022/04/05 01:07:34;;;;;;;11.85;7.57;;;;;;;8.83;93.46;99062.19;4990328;28;20069;-60
2022/04/05 01:10:06;;;;;;;12.35;7.63;;;;;;;8.86;92.38;99056.78;4994393;28;20050;-60
2022/04/05 01:15:54;;;;;;;26.23;10.63;;;;;;;8.91;92.83;99067.66;5399438;22;20523;-84
2022/04/05 01:18:21;;;;;;;10.73;7.25;;;;;;;8.98;91.95;99058.00;5062060;28;20068;-84
2022/04/05 01:20:51;;;;;;;14.90;8.63;;;;;;;8.90;92.50;99056.91;5062253;28;20488;-85
2022/04/05 01:23:22;;;;;;;17.50;9.07;;;;;;;9.05;92.74;99072.13;5063073;28;20500;-85
2022/04/05 01:25:52;;;;;;;16.15;8.55;;;;;;;9.06;92.10;99068.22;5063137;28;20061;-84
2022/04/05 01:28:20;;;;;;;12.73;7.68;;;;;;;9.06;91.41;99076.56;5062657;28;20057;-85
2022/04/05 01:30:47;;;;;;;15.52;8.63;;;;;;;9.08;92.47;99065.91;5063265;28;20064;-85
2022/04/05 01:33:15;;;;;;;20.17;9.38;;;;;;;9.14;92.83;99070.13;5061876;28;20060;-84
2022/04/05 01:35:43;;;;;;;25.73;11.45;;;;;;;9.12;92.67;99070.44;5060671;28;20048;-84
2022/04/05 01:38:11;;;;;;;17.92;9.80;;;;;;;9.09;92.45;99079.47;5059982;28;20396;-84
2022/04/05 01:40:39;;;;;;;24.60;10.48;;;;;;;9.14;92.92;99078.47;5061468;28;20064;-85
2022/04/05 01:43:08;;;;;;;16.70;8.98;;;;;;;9.22;91.92;99080.34;5060352;28;20049;-85
2022/04/05 01:45:36;;;;;;;16.65;9.50;;;;;;;9.22;92.59;99079.50;5061351;28;20063;-84
2022/04/05 01:48:04;;;;;;;19.45;9.30;;;;;;;9.23;92.65;99070.03;5060033;28;20413;-85
2022/04/05 01:50:32;;;;;;;14.60;8.32;;;;;;;9.24;92.09;99072.50;5061968;28;20103;-85
2022/04/05 01:53:00;;;;;;;20.60;9.38;;;;;;;9.31;92.44;99074.72;5061154;28;20057;-85
2022/04/05 01:55:30;;;;;;;28.98;10.07;;;;;;;9.33;92.46;99073.22;5062204;28;20049;-85
2022/04/05 01:57:58;;;;;;;16.23;7.55;;;;;;;9.39;92.56;99075.81;5060778;28;20825;-85
2022/04/05 02:00:26;;;;;;;11.00;6.55;;;;;;;9.33;92.36;99076.00;5060935;28;20405;-85
2022/04/05 02:02:56;;;;;;;14.68;7.30;;;;;;;9.44;91.90;99092.25;5061128;28;20049;-84
2022/04/05 02:05:23;;;;;;;15.30;7.10;;;;;;;9.47;92.59;99095.19;5062805;28;20059;-85
2022/04/05 02:07:54;;;;;;;25.35;8.80;;;;;;;9.54;92.59;99108.50;5032069;28;20513;-84
2022/04/05 02:10:21;;;;;;;15.43;6.10;;;;;;;9.52;93.25;99111.63;5057901;28;20056;-85
2022/04/05 02:12:52;;;;;;;3.80;2.50;;;;;;;9.47;93.31;99124.91;5061475;28;20053;-85
2022/04/05 02:15:20;;;;;;;6.47;3.47;;;;;;;9.50;92.57;99125.06;5054322;28;20048;-85
2022/04/05 02:17:49;;;;;;;5.00;3.22;;;;;;;9.50;91.84;99115.91;5081848;28;20052;-85
2022/04/05 02:20:17;;;;;;;7.90;3.78;;;;;;;9.49;92.25;99126.22;5078626;28;20230;-85
2022/04/05 02:22:45;;;;;;;4.88;2.88;;;;;;;9.49;92.28;99125.38;5079326;28;20055;-85
2022/04/05 02:25:12;;;;;;;8.38;3.78;;;;;;;9.51;92.24;99125.84;5081736;28;20396;-85
2022/04/05 02:27:41;;;;;;;5.45;3.05;;;;;;;9.49;91.62;99129.00;5080039;28;20453;-84
2022/04/05 02:30:10;;;;;;;4.93;2.70;;;;;;;9.47;91.54;99130.47;5080671;28;20049;-85
2022/04/05 02:32:38;;;;;;;6.05;2.97;;;;;;;9.40;91.20;99127.44;5066367;28;20056;-84
2022/04/05 02:35:08;;;;;;;4.72;2.72;;;;;;;9.39;91.31;99131.38;5061990;28;20049;-85
2022/04/05 02:37:35;;;;;;;2.85;1.77;;;;;;;9.33;90.89;99139.09;5062656;28;20124;-85
2022/04/05 02:40:03;;;;;;;3.80;2.10;;;;;;;9.30;90.95;99134.19;5081714;28;20040;-85
2022/04/05 02:42:31;;;;;;;4.68;3.00;;;;;;;9.30;91.22;99136.97;5078164;28;20484;-85
2022/04/05 02:45:01;;;;;;;6.35;3.25;;;;;;;9.31;91.04;99133.06;5071889;28;20051;-84
2022/04/05 02:47:29;;;;;;;5.38;3.70;;;;;;;9.32;90.90;99132.75;5074901;28;20051;-84
2022/04/05 02:49:56;;;;;;;7.07;4.65;;;;;;;9.33;91.08;99137.13;5061318;28;20064;-85
2022/04/05 02:52:25;;;;;;;8.38;5.53;;;;;;;9.36;91.65;99143.97;5078240;28;20385;-84
2022/04/05 02:54:52;;;;;;;7.70;4.93;;;;;;;9.37;91.62;99140.06;5068223;28;20064;-85
2022/04/05 02:57:22;;;;;;;8.35;5.00;;;;;;;9.40;91.95;99146.88;5078567;28;20055;-85
2022/04/05 02:59:49;;;;;;;7.93;5.82;;;;;;;9.43;91.49;99138.69;5072880;28;20386;-85
2022/04/05 03:02:17;;;;;;;10.05;5.65;;;;;;;9.48;91.59;99134.88;5068535;28;20515;-85
2022/04/05 03:04:44;;;;;;;7.78;6.22;;;;;;;9.48;91.53;99143.22;5081599;28;20052;-84
2022/04/05 03:07:11;;;;;;;10.20;7.30;;;;;;;9.51;91.60;99143.38;5080325;28;20057;-85
2022/04/05 03:09:40;;;;;;;9.10;6.68;;;;;;;9.55;91.74;99146.25;5072404;28;20052;-84
2022/04/05 03:12:08;;;;;;;11.50;7.45;;;;;;;9.46;90.83;99145.53;5068372;28;20052;-85
2022/04/05 03:14:37;;;;;;;11.23;7.75;;;;;;;9.49;91.24;99153.19;5079251;28;20067;-85
2022/04/05 03:17:05;;;;;;;9.63;7.00;;;;;;;9.55;91.36;99166.56;5080197;28;20064;-84
2022/04/05 03:19:32;;;;;;;8.98;7.28;;;;;;;9.59;91.48;99150.00;5080386;28;20420;-85
2022/04/05 03:22:00;;;;;;;26.05;13.10;;;;;;;9.62;91.17;99154.88;5079026;28;20064;-84
2022/04/05 03:24:27;;;;;;;16.55;9.80;;;;;;;9.63;90.88;99156.50;5078706;28;20507;-85
2022/04/05 03:26:56;;;;;;;8.93;7.15;;;;;;;9.61;90.85;99164.34;5076826;28;20049;-84
2022/04/05 03:29:23;;;;;;;16.00;9.38;;;;;;;9.63;90.62;99161.25;5075736;28;20056;-85
2022/04/05 03:31:52;;;;;;;16.35;10.40;;;;;;;9.59;90.49;99163.09;5069185;28;20381;-84
2022/04/05 03:34:20;;;;;;;18.15;11.98;;;;;;;9.55;89.98;99166.56;5067300;28;20064;-85
2022/04/05 03:36:47;;;;;;;14.13;9.63;;;;;;;9.56;89.92;99156.25;5061203;28;20040;-85
2022/04/05 03:39:15;;;;;;;17.00;10.10;;;;;;;9.61;90.38;99155.22;5077757;28;20057;-85
2022/04/05 03:41:42;;;;;;;11.05;6.95;;;;;;;9.62;90.25;99160.44;5082290;28;20052;-85
2022/04/05 03:44:11;;;;;;;11.07;7.88;;;;;;;9.51;89.85;99167.56;5082613;28;20048;-84
2022/04/05 03:46:38;;;;;;;13.80;8.53;;;;;;;9.55;89.64;99155.44;5082445;28;20079;-84
2022/04/05 03:49:08;;;;;;;18.17;10.10;;;;;;;9.48;90.05;99157.13;5076999;28;20055;-85
2022/04/05 03:51:35;;;;;;;17.90;10.30;;;;;;;9.52;90.05;99164.44;5062996;28;20056;-84
2022/04/05 03:54:03;;;;;;;15.27;10.73;;;;;;;9.42;89.86;99166.81;5062834;28;20508;-85
2022/04/05 03:56:30;;;;;;;21.77;12.75;;;;;;;9.42;89.19;99172.38;5062473;28;20048;-84
2022/04/05 03:58:58;;;;;;;18.23;11.02;;;;;;;9.45;89.74;99155.84;5081065;28;20052;-84
2022/04/05 04:01:27;;;;;;;12.68;9.15;;;;;;;9.45;89.37;99164.19;5066278;28;20041;-84
2022/04/05 04:03:54;;;;;;;7.60;6.07;;;;;;;9.39;88.88;99167.50;5062472;28;20067;-84
2022/04/05 04:06:22;;;;;;;11.13;6.75;;;;;;;9.35;88.49;99164.59;5062502;28;20059;-83
2022/04/05 04:08:49;;;;;;;6.00;4.70;;;;;;;9.30;88.41;99162.81;5078362;28;20045;-85
2022/04/05 04:11:17;;;;;;;9.93;5.63;;;;;;;9.28;88.94;99170.69;5077555;28;20064;-83
2022/04/05 04:13:44;;;;;;;8.40;5.47;;;;;;;9.26;89.21;99164.66;5081988;28;20059;-84
2022/04/05 04:16:11;;;;;;;5.20;3.58;;;;;;;9.22;88.85;99165.63;5072112;28;20501;-85
2022/04/05 04:18:40;;;;;;;6.35;3.30;;;;;;;9.26;88.83;99170.22;5071531;28;20516;-83
2022/04/05 04:21:07;;;;;;;5.20;3.50;;;;;;;9.23;89.30;99159.75;5077597;28;20040;-83
2022/04/05 04:23:37;;;;;;;6.72;3.63;;;;;;;9.25;89.58;99163.00;5078986;28;20045;-85
2022/04/05 04:26:05;;;;;;;6.57;3.72;;;;;;;9.20;89.12;99160.44;5075628;28;20041;-84
2022/04/05 04:28:35;;;;;;;7.13;4.43;;;;;;;9.24;89.44;99161.41;5069742;28;20044;-84
2022/04/05 04:31:04;;;;;;;9.88;5.70;;;;;;;9.25;89.85;99163.00;5076238;28;20052;-83
2022/04/05 04:33:32;;;;;;;8.95;5.78;;;;;;;9.28;90.00;99169.84;5064253;28;20057;-84
2022/04/05 04:36:03;;;;;;;12.60;7.43;;;;;;;9.31;89.70;99175.56;5078215;28;20055;-84
2022/04/05 04:38:31;;;;;;;15.20;8.15;;;;;;;9.31;89.70;99172.78;5073455;28;20056;-83
2022/04/05 04:40:59;;;;;;;13.27;7.25;;;;;;;9.32;89.99;99165.25;5068902;28;20057;-83
2022/04/05 04:43:27;;;;;;;12.95;7.35;;;;;;;9.32;90.13;99163.31;5078105;28;20051;-84
2022/04/05 04:45:55;;;;;;;14.90;7.88;;;;;;;9.39;90.53;99173.06;5065733;28;20056;-84
2022/04/05 04:48:25;;;;;;;10.55;5.65;;;;;;;9.46;90.76;99174.13;5075975;28;20056;-84
2022/04/05 04:50:52;;;;;;;12.70;7.25;;;;;;;9.42;90.22;99172.38;5082248;28;20049;-83
2022/04/05 04:53:21;;;;;;;15.85;8.05;;;;;;;9.49;89.84;99178.19;5081079;28;20405;-83
2022/04/05 04:55:51;;;;;;;18.15;9.40;;;;;;;9.50;89.69;99177.88;5079448;28;20052;-84
2022/04/05 04:58:18;;;;;;;20.00;10.50;;;;;;;9.53;90.04;99179.16;5068540;28;20051;-83
2022/04/05 05:00:46;;;;;;;19.65;9.55;;;;;;;9.48;89.90;99180.16;5079106;28;20049;-83
2022/04/05 05:03:18;;;;;;;17.15;9.35;;;;;;;9.53;89.62;99182.75;5079312;28;20055;-82
2022/04/05 05:05:46;;;;;;;13.75;8.98;;;;;;;9.54;89.02;99183.56;5077474;28;20396;-83
2022/04/05 05:08:17;;;;;;;22.48;10.88;;;;;;;9.45;89.39;99188.34;5077353;28;20071;-83
2022/04/05 05:10:45;;;;;;;16.25;9.52;;;;;;;9.41;89.02;99182.69;5081250;28;20056;-84
2022/04/05 05:13:17;;;;;;;17.58;9.77;;;;;;;9.42;88.88;99180.72;5076228;28;20403;-84
2022/04/05 05:15:45;;;;;;;20.30;10.95;;;;;;;9.41;89.19;99179.06;5076423;28;20385;-84
2022/04/05 05:18:16;;;;;;;22.27;12.48;;;;;;;9.34;88.88;99174.91;5076545;28;20044;-83
2022/04/05 05:20:43;;;;;;;26.42;12.75;;;;;;;9.31;89.34;99181.13;5077004;28;20044;-83
2022/04/05 05:23:11;;;;;;;20.05;10.70;;;;;;;9.37;89.33;99178.94;5077557;28;20408;-83
2022/04/05 05:25:38;;;;;;;19.75;10.85;;;;;;;9.35;89.28;99186.81;5063022;28;20057;-82
2022/04/05 05:28:07;;;;;;;16.05;9.38;;;;;;;9.42;89.66;99180.72;5070085;28;20051;-83
2022/04/05 05:30:35;;;;;;;15.68;8.73;;;;;;;9.42;89.05;99178.75;5064623;28;20156;-84
2022/04/05 05:33:02;;;;;;;13.00;7.90;;;;;;;9.39;88.68;99184.19;5072729;28;20427;-84
2022/04/05 05:35:30;;;;;;;14.75;9.77;;;;;;;9.38;88.28;99176.97;5077859;28;20060;-83
2022/04/05 05:37:57;;;;;;;18.23;10.02;;;;;;;9.40;88.79;99194.13;5071645;28;20048;-84
2022/04/05 05:40:25;;;;;;;16.83;10.60;;;;;;;9.37;88.62;99189.25;5076427;28;20049;-84
2022/04/05 05:42:53;;;;;;;18.25;10.57;;;;;;;9.37;89.00;99186.47;5076470;28;20056;-84
2022/04/05 05:45:23;;;;;;;16.10;10.13;;;;;;;9.39;89.00;99189.75;5075334;28;20056;-82
2022/04/05 05:47:50;;;;;;;18.33;11.45;;;;;;;9.44;89.49;99192.31;5055356;28;20048;-82
2022/04/05 05:50:18;;;;;;;22.05;11.50;;;;;;;9.47;89.64;99188.84;5068251;28;20408;-82
2022/04/05 05:52:46;;;;;;;17.83;10.68;;;;;;;9.35;89.21;99190.41;5066435;28;20071;-82
2022/04/05 05:55:16;;;;;;;16.95;10.63;;;;;;;9.47;89.15;99192.44;5065003;28;20055;-82
2022/04/05 05:57:44;;;;;;;23.95;13.70;;;;;;;9.55;89.58;99190.75;5072416;28;20445;-81
2022/04/05 06:00:17;;;;;;;19.65;12.07;;;;;;;9.63;89.32;99189.84;5060542;28;20056;-82
2022/04/05 06:02:52;;;;;;;21.90;12.30;;;;;;;9.62;89.02;99196.59;5073546;28;20053;-85
2022/04/05 06:05:21;;;;;;;23.27;13.85;;;;;;;9.69;89.64;99194.06;5067027;28;20048;-85
2022/04/05 06:07:50;;;;;;;22.48;13.68;;;;;;;9.61;89.32;99200.50;5062214;28;20408;-85
2022/04/05 06:10:18;;;;;;;17.02;11.52;;;;;;;9.64;89.03;99202.63;5076649;28;20055;-84
2022/04/05 06:12:48;;;;;;;28.58;16.95;;;;;;;9.63;87.81;99198.19;5074306;28;20397;-85
2022/04/05 06:15:16;;;;;;;;;;;;;;;9.65;88.75;99198.66;5120601;22;20468;-59
2022/04/05 06:17:44;;;;;;;56.63;30.42;;;;;;;9.66;88.84;99205.88;4995416;28;19929;-59
2022/04/05 06:20:16;;;;;;;60.05;31.25;;;;;;;9.66;89.01;99203.09;4992495;28;20487;-60
2022/04/05 06:22:48;;;;;;;99.07;41.67;;;;;;;9.70;89.62;99206.00;4993588;28;20058;-60
2022/04/05 06:25:17;;;;;;;80.85;38.80;;;;;;;9.75;89.94;99200.25;4985244;28;20054;-59
2022/04/05 06:27:44;;;;;;;100.32;45.72;;;;;;;9.79;89.69;99208.72;4993010;28;20415;-60
2022/04/05 06:30:13;;;;;;;130.55;56.00;;;;;;;9.80;89.53;99205.56;4984808;28;20051;-60
2022/04/05 06:32:41;;;;;;;121.70;52.50;;;;;;;9.82;89.49;99196.91;4995285;28;20065;-60
2022/04/05 06:35:11;;;;;;;84.90;43.65;;;;;;;9.86;89.30;99206.19;4984969;28;20054;-60
2022/04/05 06:37:43;;;;;;;90.85;44.08;;;;;;;9.92;89.49;99208.41;4985367;28;20058;-60
2022/04/05 06:40:13;;;;;;;59.95;30.45;;;;;;;9.95;89.31;99204.97;4987321;28;20043;-60
2022/04/05 06:42:43;;;;;;;38.38;22.10;;;;;;;10.03;89.07;99206.03;4991843;28;20049;-55
2022/04/05 06:45:13;;;;;;;39.35;24.25;;;;;;;10.01;88.64;99215.88;4983877;28;20050;-54
2022/04/05 06:47:41;;;;;;;29.83;18.85;;;;;;;9.91;88.09;99205.97;4975722;28;20051;-55
2022/04/05 06:50:10;;;;;;;34.10;18.50;;;;;;;9.97;88.99;99199.03;4976817;28;20522;-52
2022/04/05 06:52:38;;;;;;;34.08;20.80;;;;;;;10.04;89.33;99199.31;4979641;28;20073;-56
2022/04/05 06:55:09;;;;;;;41.85;21.77;;;;;;;10.13;89.47;99194.47;4978666;28;20066;-55
2022/04/05 06:57:36;;;;;;;42.08;21.70;;;;;;;10.11;89.21;99205.13;4971806;28;20062;-55
2022/04/05 07:00:06;;;;;;;43.40;22.80;;;;;;;10.20;89.63;99199.47;4977763;28;20055;-56
2022/04/05 07:02:33;;;;;;;37.58;20.48;;;;;;;10.23;89.40;99198.00;4985701;28;20072;-50
2022/04/05 07:05:04;;;;;;;38.30;19.30;;;;;;;10.30;89.81;99203.84;4975822;28;20057;-56
2022/04/05 07:07:31;;;;;;;48.40;25.65;;;;;;;10.36;89.73;99199.69;4977501;28;20059;-54
2022/04/05 07:09:59;;;;;;;37.60;20.77;;;;;;;10.42;89.67;99200.28;4971332;28;20116;-51
2022/04/05 07:12:27;;;;;;;46.55;24.00;;;;;;;10.42;89.59;99206.66;4976269;28;20062;-56
2022/04/05 07:14:55;;;;;;;47.35;22.67;;;;;;;10.49;89.08;99212.44;4978110;28;20046;-52
2022/04/05 07:17:22;;;;;;;34.85;21.40;;;;;;;10.46;88.50;99210.38;5004795;28;20061;-56
2022/04/05 07:19:49;;;;;;;39.90;20.98;;;;;;;10.53;88.91;99207.00;5010722;28;20493;-54
2022/04/05 07:22:17;;;;;;;39.58;21.38;;;;;;;10.50;88.26;99205.75;5009504;28;20053;-54
2022/04/05 07:24:45;;;;;;;41.75;22.65;;;;;;;10.10;87.19;99195.16;5013210;28;20509;-52
2022/04/05 07:27:12;;;;;;;35.33;18.35;;;;;;;10.32;88.14;99191.19;5010736;28;20474;-53
2022/04/05 07:29:41;;;;;;;31.00;18.25;;;;;;;10.42;88.04;99191.94;5008710;28;20050;-54
2022/04/05 07:32:09;;;;;;;32.95;19.25;;;;;;;10.39;87.50;99198.97;5012292;28;20057;-54
2022/04/05 07:34:36;;;;;;;33.67;17.70;;;;;;;10.52;87.95;99197.84;5010601;28;20058;-54
2022/04/05 07:37:04;;;;;;;24.33;15.93;;;;;;;10.57;87.94;99188.47;5010885;28;20383;-53
2022/04/05 07:39:31;;;;;;;28.42;14.95;;;;;;;10.60;87.79;99178.59;5009297;28;20066;-56
2022/04/05 07:41:59;;;;;;;25.25;16.08;;;;;;;10.64;87.99;99182.31;5010290;28;20057;-53
2022/04/05 07:44:26;;;;;;;33.42;16.52;;;;;;;10.54;87.41;99178.84;5008228;28;20391;-53
2022/04/05 07:46:55;;;;;;;24.17;16.63;;;;;;;10.60;87.18;99186.94;5008975;28;20050;-51
2022/04/05 07:49:22;;;;;;;30.48;20.70;;;;;;;10.73;87.65;99180.22;5015446;28;20050;-53
2022/04/05 07:51:50;;;;;;;34.90;19.50;;;;;;;10.82;87.10;99182.91;5011927;28;20073;-53
2022/04/05 07:54:17;;;;;;;26.42;17.35;;;;;;;10.81;86.84;99186.84;5009118;28;20061;-53
2022/04/05 07:56:44;;;;;;;31.73;18.75;;;;;;;10.81;87.55;99189.63;5012446;28;20492;-54
2022/04/05 07:59:12;;;;;;;29.83;18.70;;;;;;;10.90;87.71;99187.56;5010130;28;20442;-51
2022/04/05 08:01:39;;;;;;;32.25;18.70;;;;;;;10.94;88.48;99182.91;5011296;28;20058;-53
2022/04/05 08:04:08;;;;;;;31.00;16.85;;;;;;;11.02;88.24;99184.75;5008205;28;20065;-55
2022/04/05 08:06:36;;;;;;;30.98;16.48;;;;;;;11.10;88.26;99189.41;5009218;28;20061;-50
2022/04/05 08:09:03;;;;;;;27.40;17.15;;;;;;;11.13;87.57;99187.91;5011724;28;20050;-51
2022/04/05 08:11:33;;;;;;;30.83;16.40;;;;;;;11.26;88.59;99189.50;5010619;28;20053;-51
2022/04/05 08:14:00;;;;;;;27.42;16.45;;;;;;;11.33;88.26;99175.78;5006496;28;20054;-53
2022/04/05 08:16:28;;;;;;;19.02;14.38;;;;;;;11.34;87.23;99183.00;5008510;28;20422;-52
2022/04/05 08:18:55;;;;;;;27.80;17.92;;;;;;;11.24;87.02;99186.25;5009653;28;20449;-53
2022/04/05 08:21:27;;;;;;;30.98;17.23;;;;;;;11.33;87.81;99192.50;5009259;28;20068;-53
2022/04/05 08:23:55;;;;;;;23.60;15.88;;;;;;;11.43;87.67;99193.19;5009910;28;20050;-50
2022/04/05 08:26:22;;;;;;;25.45;16.02;;;;;;;11.41;87.36;99199.13;5009438;28;20137;-50
2022/04/05 08:28:50;;;;;;;22.55;16.15;;;;;;;11.43;87.04;99184.84;5007380;28;20486;-53
2022/04/05 08:31:17;;;;;;;27.52;17.20;;;;;;;11.44;87.09;99189.22;5008014;28;20049;-54
2022/04/05 08:33:45;;;;;;;26.70;16.63;;;;;;;11.41;86.86;99195.53;5010540;28;20057;-54
2022/04/05 08:36:13;;;;;;;22.35;15.18;;;;;;;11.42;87.18;99199.94;5012072;28;20505;-53
2022/04/05 08:38:42;;;;;;;25.20;16.25;;;;;;;11.43;86.40;99207.16;5008453;28;20058;-52
2022/04/05 08:41:12;;;;;;;24.98;15.68;;;;;;;11.44;86.11;99206.78;5010649;28;20062;-53
2022/04/05 08:43:43;;;;;;;25.23;16.55;;;;;;;11.47;85.83;99197.72;5008627;28;20057;-54
2022/04/05 08:46:11;;;;;;;22.05;16.25;;;;;;;11.40;85.51;99207.81;5008402;28;20065;-53
2022/04/05 08:48:38;;;;;;;20.80;15.32;;;;;;;11.50;85.39;99210.94;5007532;28;20049;-52
2022/04/05 08:51:06;;;;;;;27.13;16.63;;;;;;;11.50;86.17;99213.72;5008935;28;20054;-54
2022/04/05 08:53:34;;;;;;;20.55;14.57;;;;;;;11.61;85.87;99208.47;5008102;28;20062;-52
2022/04/05 08:56:03;;;;;;;18.52;12.80;;;;;;;11.62;86.09;99212.09;5008873;28;20046;-55
2022/04/05 08:58:30;;;;;;;14.77;11.77;;;;;;;11.64;86.10;99213.38;5009422;28;20054;-53
2022/04/05 09:00:58;;;;;;;16.30;10.93;;;;;;;11.58;85.45;99220.34;5008006;28;20053;-50
2022/04/05 09:03:28;;;;;;;18.48;12.18;;;;;;;11.57;86.06;99215.94;5007269;28;20446;-55
2022/04/05 09:05:55;;;;;;;19.92;12.85;;;;;;;11.63;85.91;99211.72;5006912;28;20050;-50
2022/04/05 09:08:25;;;;;;;21.23;12.65;;;;;;;11.69;86.52;99224.25;5008992;28;20048;-53
2022/04/05 09:10:53;;;;;;;17.35;12.70;;;;;;;11.74;85.53;99224.03;5008082;28;20056;-51
2022/04/05 09:13:25;;;;;;;20.17;13.20;;;;;;;11.75;85.75;99220.06;5006797;28;20449;-53
2022/04/05 09:15:54;;;;;;;18.90;12.60;;;;;;;11.74;86.18;99224.03;5009561;28;20065;-54
2022/04/05 09:18:44;;;;;;;20.10;13.73;;;;;;;11.75;86.60;99225.66;5008866;28;20046;-53
2022/04/05 09:21:11;;;;;;;;;;;;;;;11.71;85.28;99226.72;5005299;28;20427;-52
2022/04/05 09:23:42;;;;;;;19.00;14.38;;;;;;;11.74;86.16;99224.03;5004780;28;19937;-53
2022/04/05 09:26:10;;;;;;;19.02;13.73;;;;;;;11.81;86.00;99225.41;5012055;28;20422;-53
2022/04/05 09:28:41;;;;;;;19.65;14.45;;;;;;;11.88;85.17;99223.66;5012986;28;20054;-52
2022/04/05 09:31:10;;;;;;;19.58;14.98;;;;;;;11.88;84.86;99226.44;5011655;28;20061;-52
2022/04/05 09:33:39;;;;;;;17.53;14.47;;;;;;;11.81;84.78;99231.00;5013403;28;20054;-54
2022/04/05 09:36:08;;;;;;;;;;;;;;;11.82;84.44;99224.22;5012991;28;20058;-52
2022/04/05 09:38:36;;;;;;;16.60;12.77;;;;;;;11.94;84.38;99230.63;5012931;28;19941;-56
2022/04/05 09:41:24;;;;;;;14.98;12.32;;;;;;;11.80;84.15;99224.59;5013708;28;20061;-51
2022/04/05 09:43:56;;;;;;;15.10;12.38;;;;;;;11.96;84.43;99233.06;5017815;28;20061;-55
2022/04/05 09:46:24;;;;;;;15.32;12.35;;;;;;;11.93;83.43;99233.78;5012740;28;20049;-50
2022/04/05 09:49:10;;;;;;;15.43;12.45;;;;;;;11.84;83.40;99228.28;5014447;28;20064;-53
2022/04/05 09:51:44;;;;;;;14.40;12.00;;;;;;;11.93;82.19;99236.56;5017882;28;20056;-51
2022/04/05 09:54:27;;;;;;;14.38;11.73;;;;;;;12.02;82.87;99234.44;5030804;28;20059;-50
2022/04/05 09:57:03;;;;;;;16.15;13.00;;;;;;;12.06;82.97;99232.56;5013184;28;20054;-51
2022/04/05 09:59:40;;;;;;;18.00;12.98;;;;;;;12.07;82.65;99236.16;5004482;28;20069;-50
2022/04/05 10:02:10;;;;;;;16.38;13.60;;;;;;;12.00;82.07;99235.97;5010064;28;20050;-50
2022/04/05 10:04:58;;;;;;;16.75;14.00;;;;;;;11.97;82.82;99238.28;5010845;28;20057;-53
2022/04/05 10:07:28;;;;;;;15.52;13.48;;;;;;;12.03;82.88;99236.03;5010937;28;20399;-54
2022/04/05 10:09:57;;;;;;;18.50;14.45;;;;;;;12.11;83.98;99234.28;5012618;28;20049;-51
2022/04/05 10:12:25;;;;;;;15.55;13.00;;;;;;;12.16;83.29;99232.06;5022964;28;20057;-51
2022/04/05 10:14:54;;;;;;;16.17;13.55;;;;;;;12.22;83.58;99237.38;5019539;28;20056;-53
2022/04/05 10:17:25;;;;;;;16.17;14.02;;;;;;;12.22;83.47;99240.16;5002462;28;20052;-55
2022/04/05 10:19:57;;;;;;;15.63;12.88;;;;;;;12.30;82.08;99236.41;5016386;28;20041;-52
2022/04/05 10:22:26;;;;;;;18.05;14.15;;;;;;;12.26;82.36;99244.66;5020973;28;20054;-55
2022/04/05 10:24:55;;;;;;;14.75;12.07;;;;;;;12.28;82.61;99247.13;5019034;28;20056;-52
2022/04/05 10:27:25;;;;;;;12.60;11.32;;;;;;;12.31;81.32;99246.41;5024894;28;20509;-52
2022/04/05 10:30:03;;;;;;;14.80;12.63;;;;;;;12.29;81.32;99246.75;5019485;28;20050;-55
2022/04/05 10:32:37;;;;;;;14.73;12.52;;;;;;;12.48;81.75;99246.09;5022028;28;20062;-52
2022/04/05 10:35:09;;;;;;;15.18;12.45;;;;;;;12.54;81.91;99247.47;5024701;28;20049;-56
2022/04/05 10:37:38;;;;;;;14.93;11.52;;;;;;;12.57;80.96;99243.13;5017670;28;20045;-54
2022/04/05 10:40:17;;;;;;;13.63;12.10;;;;;;;12.70;81.04;99236.28;5016672;28;20051;-52
2022/04/05 10:42:47;;;;;;;12.98;11.18;;;;;;;12.79;80.62;99247.31;5008155;28;20060;-55
2022/04/05 10:45:18;;;;;;;12.68;10.05;;;;;;;12.96;79.56;99237.75;5030103;28;20520;-56
2022/04/05 10:48:09;;;;;;;10.57;9.48;;;;;;;13.25;78.50;99244.03;5014077;28;20045;-53
2022/04/05 10:50:36;;;;;;;11.70;10.43;;;;;;;13.36;77.97;99240.38;5029922;28;20054;-50
2022/04/05 10:53:18;;;;;;;12.00;10.38;;;;;;;13.49;77.10;99243.84;5016028;28;20050;-51
2022/04/05 10:56:20;;;;;;;12.35;11.00;;;;;;;13.44;75.95;99248.91;5024920;28;20053;-53
2022/04/05 10:59:16;;;;;;;12.50;11.20;;;;;;;13.44;75.49;99240.50;5015309;28;20060;-55
2022/04/05 11:01:45;;;;;;;13.30;11.25;;;;;;;12.95;75.28;99247.31;4991986;28;20054;-51
2022/04/05 11:04:35;;;;;;;13.07;11.63;;;;;;;13.27;78.33;99244.47;5015086;28;20053;-54
2022/04/05 11:07:14;;;;;;;13.13;11.50;;;;;;;13.36;77.83;99240.38;5013529;28;20061;-52
2022/04/05 11:09:49;;;;;;;11.52;10.23;;;;;;;13.42;76.15;99238.09;5013332;28;20050;-53
2022/04/05 11:12:21;;;;;;;14.35;12.05;;;;;;;13.39;77.14;99236.81;5020399;28;20058;-52
2022/04/05 11:14:51;;;;;;;12.85;9.98;;;;;;;13.64;75.17;99238.59;5014390;28;20065;-53
2022/04/05 11:17:22;;;;;;;10.25;9.25;;;;;;;13.83;75.27;99221.00;5027040;28;20053;-51
2022/04/05 11:19:52;;;;;;;10.90;9.75;;;;;;;14.29;75.82;99227.56;5016008;28;20050;-52
2022/04/05 11:22:34;;;;;;;9.40;8.50;;;;;;;14.79;72.29;99219.31;5020547;28;20049;-50
2022/04/05 11:25:05;;;;;;;8.77;7.57;;;;;;;15.22;72.00;99220.00;5010597;28;20062;-52
2022/04/05 11:27:35;;;;;;;9.13;8.23;;;;;;;15.35;71.10;99217.81;5014116;28;20399;-54
2022/04/05 11:30:40;;;;;;;9.23;8.32;;;;;;;14.99;69.50;99220.03;5020182;28;20054;-50
2022/04/05 11:33:41;;;;;;;7.93;7.20;;;;;;;14.72;69.64;99216.38;5014594;28;20458;-53
2022/04/05 11:36:10;;;;;;;9.30;8.40;;;;;;;14.53;72.13;99222.78;5013529;28;20054;-52
2022/04/05 11:38:40;;;;;;;9.30;8.43;;;;;;;14.37;71.26;99220.13;5015670;28;20060;-54
2022/04/05 11:41:09;;;;;;;;;;;;;;;14.05;73.63;99220.28;5011907;28;20532;-53